createdAt,value
2019-02-18T00:00:05.966Z,7.40
2019-02-18T00:02:34.560Z,7.40
2019-02-18T00:05:02.973Z,7.30
2019-02-18T00:07:31.384Z,7.20
2019-02-18T00:09:59.784Z,7.10
2019-02-18T00:12:28.202Z,7.10
2019-02-18T00:14:56.597Z,7.10
2019-02-18T00:17:25.108Z,7.20
2019-02-18T00:19:53.523Z,7.20
2019-02-18T00:22:21.941Z,7.20
2019-02-18T00:24:50.353Z,7.10
2019-02-18T00:27:18.769Z,7.10
2019-02-18T00:29:47.180Z,7.00
2019-02-18T00:32:15.601Z,7.10
2019-02-18T00:34:44.012Z,7.10
2019-02-18T00:37:12.417Z,7.00
2019-02-18T00:39:40.832Z,7.00
2019-02-18T00:42:10.096Z,6.90
2019-02-18T00:44:38.515Z,7.00
2019-02-18T00:47:07.173Z,7.00
2019-02-18T00:49:35.588Z,7.00
2019-02-18T00:52:03.988Z,6.90
2019-02-18T00:54:32.411Z,6.90
2019-02-18T00:57:00.807Z,7.00
2019-02-18T00:59:29.225Z,6.90
2019-02-18T01:01:57.634Z,6.90
2019-02-18T01:04:26.044Z,7.00
2019-02-18T01:06:54.533Z,7.00
2019-02-18T01:09:22.960Z,6.90
2019-02-18T01:11:51.364Z,6.90
2019-02-18T01:14:19.789Z,7.00
2019-02-18T01:16:48.187Z,6.90
2019-02-18T01:19:16.618Z,6.80
2019-02-18T01:21:45.016Z,6.80
2019-02-18T01:24:13.441Z,6.70
2019-02-18T01:26:41.849Z,6.80
2019-02-18T01:29:10.280Z,6.80
2019-02-18T01:31:38.685Z,6.80
2019-02-18T01:34:07.113Z,6.70
2019-02-18T01:36:35.649Z,6.60
2019-02-18T01:39:05.604Z,6.70
2019-02-18T01:41:34.011Z,6.70
2019-02-18T01:44:02.424Z,6.60
2019-02-18T01:46:30.832Z,6.60
2019-02-18T01:48:59.238Z,6.50
2019-02-18T01:51:27.641Z,6.60
2019-02-18T01:53:56.331Z,6.70
2019-02-18T01:56:24.766Z,6.60
2019-02-18T01:58:53.358Z,6.60
2019-02-18T02:01:21.774Z,6.60
2019-02-18T02:03:50.181Z,6.40
2019-02-18T02:06:18.587Z,6.40
2019-02-18T02:08:47.033Z,6.40
2019-02-18T02:11:15.445Z,6.40
2019-02-18T02:13:43.844Z,6.50
2019-02-18T02:16:12.266Z,6.40
2019-02-18T02:18:40.669Z,6.50
2019-02-18T02:21:09.088Z,6.50
2019-02-18T02:23:37.492Z,6.50
2019-02-18T02:26:06.080Z,6.40
2019-02-18T02:28:34.488Z,6.40
2019-02-18T02:31:02.914Z,6.40
2019-02-18T02:33:31.390Z,6.40
2019-02-18T02:35:59.803Z,6.20
2019-02-18T02:38:28.210Z,6.30
2019-02-18T02:40:56.627Z,6.30
2019-02-18T02:43:25.240Z,6.30
2019-02-18T02:45:53.659Z,6.20
2019-02-18T02:48:22.054Z,6.20
2019-02-18T02:50:50.471Z,6.20
2019-02-18T02:53:18.908Z,6.10
2019-02-18T02:55:47.789Z,6.20
2019-02-18T02:58:16.213Z,6.20
2019-02-18T03:00:44.624Z,6.00
2019-02-18T03:03:13.028Z,6.10
2019-02-18T03:05:41.459Z,6.10
2019-02-18T03:08:20.000Z,6.20
2019-02-18T03:10:40.001Z,6.20
2019-02-18T03:13:08.388Z,6.20
2019-02-18T03:15:36.808Z,6.20
2019-02-18T03:18:05.211Z,6.20
2019-02-18T03:20:33.642Z,6.20
2019-02-18T03:23:02.043Z,6.20
2019-02-18T03:25:32.009Z,6.10
2019-02-18T03:28:09.435Z,6.10
2019-02-18T03:30:46.933Z,6.10
2019-02-18T03:33:21.476Z,6.00
2019-02-18T03:35:49.946Z,6.00
2019-02-18T03:38:18.453Z,6.00
2019-02-18T03:40:47.159Z,5.90
2019-02-18T03:43:15.595Z,5.90
2019-02-18T03:45:43.974Z,5.90
2019-02-18T03:48:12.471Z,5.80
2019-02-18T03:50:40.883Z,5.80
2019-02-18T03:53:09.962Z,5.80
2019-02-18T03:55:38.370Z,5.80
2019-02-18T03:58:07.098Z,5.80
2019-02-18T04:00:35.503Z,5.80
2019-02-18T04:03:04.106Z,5.80
2019-02-18T04:05:32.564Z,5.80
2019-02-18T04:08:01.060Z,5.80
2019-02-18T04:10:29.464Z,5.70
2019-02-18T04:12:57.872Z,5.70
2019-02-18T04:15:26.276Z,5.80
2019-02-18T04:17:54.687Z,5.80
2019-02-18T04:20:23.096Z,5.80
2019-02-18T04:22:51.552Z,5.70
2019-02-18T04:25:19.962Z,5.70
2019-02-18T04:27:48.372Z,5.70
2019-02-18T04:30:16.777Z,5.80
2019-02-18T04:32:45.189Z,5.80
2019-02-18T04:35:13.589Z,5.70
2019-02-18T04:37:42.008Z,5.70
2019-02-18T04:40:10.826Z,5.70
2019-02-18T04:42:39.243Z,5.60
2019-02-18T04:45:09.890Z,5.60
2019-02-18T04:47:38.299Z,5.60
2019-02-18T04:50:08.190Z,5.50
2019-02-18T04:52:36.601Z,5.50
2019-02-18T04:55:10.114Z,5.50
2019-02-18T04:57:38.525Z,5.50
2019-02-18T05:00:09.387Z,5.40
2019-02-18T05:02:37.781Z,5.40
2019-02-18T05:05:08.541Z,5.40
2019-02-18T05:07:36.951Z,5.40
2019-02-18T05:10:08.598Z,5.40
2019-02-18T05:12:37.063Z,5.40
2019-02-18T05:15:07.308Z,5.40
2019-02-18T05:17:35.836Z,5.30
2019-02-18T05:20:06.225Z,5.30
2019-02-18T05:22:34.626Z,5.30
2019-02-18T05:25:03.317Z,5.20
2019-02-18T05:27:33.522Z,5.10
2019-02-18T05:30:01.867Z,5.20
2019-02-18T05:32:31.688Z,5.20
2019-02-18T05:35:00.104Z,5.10
2019-02-18T05:37:28.505Z,5.20
2019-02-18T05:39:56.912Z,5.20
2019-02-18T05:42:25.322Z,5.30
2019-02-18T05:44:53.724Z,5.30
2019-02-18T05:47:22.140Z,5.30
2019-02-18T05:49:50.744Z,5.20
2019-02-18T05:52:19.157Z,5.20
2019-02-18T05:54:47.564Z,5.20
2019-02-18T05:57:16.022Z,5.20
2019-02-18T05:59:44.476Z,5.30
2019-02-18T06:02:12.896Z,5.30
2019-02-18T06:04:41.299Z,5.30
2019-02-18T06:07:09.705Z,5.30
2019-02-18T06:09:38.116Z,5.30
2019-02-18T06:12:06.534Z,5.30
2019-02-18T06:14:34.950Z,5.30
2019-02-18T06:17:03.369Z,5.30
2019-02-18T06:19:31.765Z,5.30
2019-02-18T06:22:00.174Z,5.20
2019-02-18T06:24:28.592Z,5.20
2019-02-18T06:26:56.994Z,5.00
2019-02-18T06:29:25.569Z,5.00
2019-02-18T06:31:53.967Z,5.10
2019-02-18T06:34:22.378Z,5.20
2019-02-18T06:36:50.798Z,5.20
2019-02-18T06:39:19.203Z,5.30
2019-02-18T06:41:47.622Z,5.40
2019-02-18T06:44:17.665Z,5.40
2019-02-18T06:46:47.902Z,5.40
2019-02-18T06:49:16.377Z,5.50
2019-02-18T06:51:44.797Z,5.60
2019-02-18T06:54:13.233Z,5.60
2019-02-18T06:56:45.945Z,5.40
2019-02-18T06:59:21.817Z,5.30
2019-02-18T07:01:51.933Z,5.30
2019-02-18T07:04:21.985Z,5.50
2019-02-18T07:06:57.724Z,5.50
2019-02-18T07:09:36.525Z,5.50
2019-02-18T07:12:09.200Z,5.60
2019-02-18T07:14:37.979Z,5.60
2019-02-18T07:17:06.404Z,5.50
2019-02-18T07:19:34.820Z,5.50
2019-02-18T07:22:03.281Z,5.50
2019-02-18T07:24:31.690Z,5.60
2019-02-18T07:27:00.108Z,5.90
2019-02-18T07:29:28.521Z,5.90
2019-02-18T07:31:56.945Z,5.90
2019-02-18T07:34:25.346Z,5.80
2019-02-18T07:36:53.785Z,6.10
2019-02-18T07:39:22.710Z,6.10
2019-02-18T07:41:51.150Z,6.10
2019-02-18T07:44:19.557Z,6.00
2019-02-18T07:46:47.977Z,5.90
2019-02-18T07:49:16.394Z,5.90
2019-02-18T07:51:44.835Z,5.90
2019-02-18T07:54:13.257Z,6.00
2019-02-18T07:56:41.684Z,6.10
2019-02-18T07:59:11.641Z,6.10
2019-02-18T08:01:40.113Z,6.10
2019-02-18T08:04:08.540Z,6.10
2019-02-18T08:06:36.960Z,6.10
2019-02-18T08:09:06.324Z,6.20
2019-02-18T08:11:34.746Z,6.30
2019-02-18T08:14:03.159Z,6.40
2019-02-18T08:16:31.564Z,6.40
2019-02-18T08:18:59.982Z,6.50
2019-02-18T08:21:28.482Z,6.60
2019-02-18T08:23:59.982Z,6.80
2019-02-18T08:26:27.052Z,6.90
2019-02-18T08:28:55.532Z,6.90
2019-02-18T08:31:23.961Z,7.00
2019-02-18T08:33:52.395Z,7.00
2019-02-18T08:36:20.799Z,7.10
2019-02-18T08:38:49.412Z,7.20
2019-02-18T08:41:17.808Z,7.30
2019-02-18T08:43:46.229Z,7.50
2019-02-18T08:46:14.638Z,7.60
2019-02-18T08:48:43.069Z,7.60
2019-02-18T08:51:11.473Z,7.80
2019-02-18T08:53:39.899Z,7.90
2019-02-18T08:56:08.430Z,8.00
2019-02-18T08:58:36.846Z,8.10
2019-02-18T09:01:05.244Z,8.20
2019-02-18T09:03:33.668Z,8.20
2019-02-18T09:06:02.084Z,8.40
2019-02-18T09:08:30.508Z,8.50
2019-02-18T09:10:58.910Z,8.60
2019-02-18T09:13:27.412Z,8.60
2019-02-18T09:16:00.166Z,8.80
2019-02-18T09:18:26.010Z,8.80
2019-02-18T09:20:54.416Z,8.90
2019-02-18T09:23:24.476Z,9.00
2019-02-18T09:25:53.355Z,9.10
2019-02-18T09:28:21.857Z,9.10
2019-02-18T09:30:52.661Z,9.30
2019-02-18T09:33:21.097Z,9.40
2019-02-18T09:35:49.562Z,9.50
2019-02-18T09:38:24.878Z,9.60
2019-02-18T09:40:51.377Z,9.70
2019-02-18T09:43:18.573Z,9.80
2019-02-18T09:45:46.984Z,9.90
2019-02-18T09:48:15.388Z,9.90
2019-02-18T09:50:43.826Z,10.10
2019-02-18T09:53:12.268Z,10.20
2019-02-18T09:55:40.693Z,10.30
2019-02-18T09:58:09.218Z,10.40
2019-02-18T10:00:37.642Z,10.50
2019-02-18T10:03:06.067Z,10.50
2019-02-18T10:05:34.470Z,10.60
2019-02-18T10:08:02.885Z,10.60
2019-02-18T10:10:31.307Z,10.60
2019-02-18T10:12:59.842Z,10.70
2019-02-18T10:15:28.350Z,10.80
2019-02-18T10:17:56.780Z,10.70
2019-02-18T10:20:25.204Z,10.70
2019-02-18T10:22:53.629Z,10.80
2019-02-18T10:25:22.054Z,10.70
2019-02-18T10:27:50.463Z,10.80
2019-02-18T10:30:20.785Z,10.70
2019-02-18T10:32:50.182Z,10.80
2019-02-18T10:35:18.682Z,10.90
2019-02-18T10:37:54.831Z,11.10
2019-02-18T10:40:17.281Z,11.10
2019-02-18T10:42:45.685Z,11.20
2019-02-18T10:45:14.098Z,11.20
2019-02-18T10:47:42.586Z,11.30
2019-02-18T10:50:12.389Z,11.30
2019-02-18T10:52:40.824Z,11.30
2019-02-18T10:55:10.666Z,11.30
2019-02-18T10:57:39.674Z,11.30
2019-02-18T11:00:15.414Z,11.40
2019-02-18T11:02:44.509Z,11.50
2019-02-18T11:05:13.081Z,11.50
2019-02-18T11:07:41.503Z,11.60
2019-02-18T11:10:13.196Z,11.60
2019-02-18T11:12:41.609Z,11.70
2019-02-18T11:15:12.472Z,11.70
2019-02-18T11:17:41.167Z,11.70
2019-02-18T11:20:11.326Z,11.70
2019-02-18T11:22:39.741Z,11.70
2019-02-18T11:25:10.901Z,11.80
2019-02-18T11:27:39.330Z,11.90
2019-02-18T11:30:13.416Z,12.00
2019-02-18T11:32:41.858Z,12.10
2019-02-18T11:35:10.845Z,12.20
2019-02-18T11:37:39.273Z,12.30
2019-02-18T11:40:15.597Z,12.30
2019-02-18T11:42:44.016Z,12.20
2019-02-18T11:45:14.448Z,12.20
2019-02-18T11:47:42.860Z,12.20
2019-02-18T11:50:15.604Z,12.30
2019-02-18T11:52:44.051Z,12.40
2019-02-18T11:55:13.505Z,12.50
2019-02-18T11:57:42.847Z,12.60
2019-02-18T12:00:13.425Z,12.70
2019-02-18T12:02:41.855Z,12.80
2019-02-18T12:05:11.395Z,12.60
2019-02-18T12:07:39.884Z,12.70
2019-02-18T12:10:12.753Z,12.70
2019-02-18T12:12:41.650Z,12.70
2019-02-18T12:15:14.666Z,12.80
2019-02-18T12:17:43.221Z,12.90
2019-02-18T12:20:15.995Z,13.00
2019-02-18T12:22:44.635Z,13.00
2019-02-18T12:25:14.422Z,13.10
2019-02-18T12:27:43.320Z,13.20
2019-02-18T12:30:14.176Z,13.20
2019-02-18T12:32:42.779Z,13.30
2019-02-18T12:35:11.811Z,13.40
2019-02-18T12:37:40.332Z,13.40
2019-02-18T12:40:13.532Z,13.40
2019-02-18T12:42:42.550Z,13.40
2019-02-18T12:45:12.718Z,13.60
2019-02-18T12:47:41.423Z,13.60
2019-02-18T12:50:11.398Z,13.70
2019-02-18T12:52:39.828Z,13.80
2019-02-18T12:55:09.644Z,13.70
2019-02-18T12:57:38.428Z,13.80
2019-02-18T13:00:13.494Z,13.90
2019-02-18T13:02:44.691Z,13.90
2019-02-18T13:05:13.866Z,14.00
2019-02-18T13:07:42.432Z,14.10
2019-02-18T13:10:12.013Z,14.20
2019-02-18T13:12:40.966Z,14.20
2019-02-18T13:15:12.746Z,14.20
2019-02-18T13:17:42.888Z,14.30
2019-02-18T13:20:11.504Z,14.30
2019-02-18T13:22:39.987Z,14.30
2019-02-18T13:25:09.816Z,14.30
2019-02-18T13:27:38.240Z,14.40
2019-02-18T13:30:13.134Z,14.50
2019-02-18T13:32:41.625Z,14.50
2019-02-18T13:35:10.128Z,14.60
2019-02-18T13:37:38.623Z,14.60
2019-02-18T13:40:08.109Z,14.70
2019-02-18T13:42:36.577Z,14.70
2019-02-18T13:45:07.612Z,14.70
2019-02-18T13:47:36.027Z,14.70
2019-02-18T13:50:09.676Z,14.70
2019-02-18T13:52:38.118Z,14.80
2019-02-18T13:55:09.439Z,14.80
2019-02-18T13:57:38.997Z,14.60
2019-02-18T14:00:12.360Z,14.70
2019-02-18T14:02:40.772Z,14.70
2019-02-18T14:05:09.266Z,14.70
2019-02-18T14:07:37.685Z,14.50
2019-02-18T14:10:07.342Z,14.50
2019-02-18T14:12:36.135Z,14.70
2019-02-18T14:15:07.128Z,14.70
2019-02-18T14:17:35.640Z,14.80
2019-02-18T14:20:06.129Z,14.70
2019-02-18T14:22:34.555Z,14.70
2019-02-18T14:25:03.426Z,14.60
2019-02-18T14:27:32.429Z,14.70
2019-02-18T14:30:00.859Z,14.70
2019-02-18T14:32:29.298Z,14.70
2019-02-18T14:34:58.579Z,14.70
2019-02-18T14:37:27.237Z,14.70
2019-02-18T14:39:55.656Z,14.60
2019-02-18T14:42:24.986Z,14.50
2019-02-18T14:44:53.383Z,14.50
2019-02-18T14:47:21.814Z,14.50
2019-02-18T14:49:50.401Z,14.60
2019-02-18T14:52:18.894Z,14.50
2019-02-18T14:54:47.305Z,14.50
2019-02-18T14:57:15.736Z,14.50
2019-02-18T14:59:44.421Z,14.50
2019-02-18T15:02:13.381Z,14.60
2019-02-18T15:04:41.796Z,14.60
2019-02-18T15:07:10.217Z,14.60
2019-02-18T15:09:38.625Z,14.60
2019-02-18T15:12:07.228Z,14.70
2019-02-18T15:14:36.580Z,14.60
2019-02-18T15:17:05.596Z,14.50
2019-02-18T15:19:34.022Z,14.50
2019-02-18T15:22:02.462Z,14.40
2019-02-18T15:24:31.072Z,14.40
2019-02-18T15:26:59.496Z,14.40
2019-02-18T15:29:28.292Z,14.40
2019-02-18T15:31:56.722Z,14.40
2019-02-18T15:34:25.129Z,14.30
2019-02-18T15:36:53.558Z,14.30
2019-02-18T15:39:22.059Z,14.30
2019-02-18T15:41:50.482Z,14.30
2019-02-18T15:44:19.345Z,14.30
2019-02-18T15:46:49.692Z,14.30
2019-02-18T15:49:18.128Z,14.30
2019-02-18T15:51:46.569Z,14.30
2019-02-18T15:54:15.004Z,14.20
2019-02-18T15:56:43.449Z,14.20
2019-02-18T15:59:11.864Z,14.10
2019-02-18T16:01:40.993Z,14.00
2019-02-18T16:04:09.460Z,14.00
2019-02-18T16:06:38.012Z,13.90
2019-02-18T16:09:07.647Z,13.90
2019-02-18T16:11:36.057Z,13.80
2019-02-18T16:14:04.483Z,13.70
2019-02-18T16:16:33.773Z,13.70
2019-02-18T16:19:02.368Z,13.60
2019-02-18T16:21:30.880Z,13.40
2019-02-18T16:23:59.530Z,13.50
2019-02-18T16:26:27.950Z,13.50
2019-02-18T16:28:56.368Z,13.40
2019-02-18T16:31:24.775Z,13.40
2019-02-18T16:33:53.199Z,13.30
2019-02-18T16:36:21.688Z,13.40
2019-02-18T16:38:50.595Z,13.40
2019-02-18T16:41:18.995Z,13.40
2019-02-18T16:43:47.560Z,13.30
2019-02-18T16:46:16.063Z,13.20
2019-02-18T16:48:45.057Z,13.20
2019-02-18T16:51:13.477Z,13.10
2019-02-18T16:53:41.910Z,13.00
2019-02-18T16:56:10.335Z,12.90
2019-02-18T16:58:38.806Z,12.80
2019-02-18T17:01:07.303Z,12.70
2019-02-18T17:03:36.515Z,12.70
2019-02-18T17:06:05.057Z,12.60
2019-02-18T17:08:33.493Z,12.60
2019-02-18T17:11:01.954Z,12.50
2019-02-18T17:13:30.519Z,12.50
2019-02-18T17:15:58.948Z,12.50
2019-02-18T17:18:27.369Z,12.40
2019-02-18T17:20:57.320Z,12.40
2019-02-18T17:23:25.756Z,12.40
2019-02-18T17:25:54.281Z,12.30
2019-02-18T17:28:22.776Z,12.30
2019-02-18T17:30:51.260Z,12.20
2019-02-18T17:33:19.709Z,12.20
2019-02-18T17:35:48.771Z,12.10
2019-02-18T17:38:17.196Z,12.10
2019-02-18T17:40:45.613Z,12.00
2019-02-18T17:43:16.395Z,11.90
2019-02-18T17:45:44.204Z,11.90
2019-02-18T17:48:12.652Z,11.80
2019-02-18T17:50:41.060Z,11.80
2019-02-18T17:53:09.630Z,11.70
2019-02-18T17:55:38.110Z,11.70
2019-02-18T17:58:06.641Z,11.70
2019-02-18T18:00:36.815Z,12.00
2019-02-18T18:03:05.228Z,12.10
2019-02-18T18:05:33.646Z,12.10
2019-02-18T18:08:02.723Z,11.90
2019-02-18T18:10:31.371Z,11.70
2019-02-18T18:12:59.781Z,11.50
2019-02-18T18:15:28.268Z,11.40
2019-02-18T18:17:56.676Z,11.30
2019-02-18T18:20:25.099Z,11.20
2019-02-18T18:22:54.191Z,11.20
2019-02-18T18:25:22.713Z,11.10
2019-02-18T18:27:51.547Z,11.10
2019-02-18T18:30:20.259Z,11.00
2019-02-18T18:32:48.680Z,10.90
2019-02-18T18:35:17.178Z,10.80
2019-02-18T18:37:45.589Z,10.80
2019-02-18T18:40:18.619Z,10.80
2019-02-18T18:42:47.034Z,10.80
2019-02-18T18:45:17.658Z,10.80
2019-02-18T18:47:46.336Z,10.70
2019-02-18T18:50:20.170Z,10.70
2019-02-18T18:52:48.684Z,10.70
2019-02-18T18:55:17.119Z,10.60
2019-02-18T18:57:45.769Z,10.60
2019-02-18T19:00:22.560Z,10.60
2019-02-18T19:02:50.971Z,10.60
2019-02-18T19:05:20.333Z,10.60
2019-02-18T19:07:48.825Z,10.60
2019-02-18T19:10:17.304Z,10.60
2019-02-18T19:12:45.815Z,10.70
2019-02-18T19:15:16.533Z,10.70
2019-02-18T19:17:45.082Z,10.70
2019-02-18T19:20:14.855Z,10.70
2019-02-18T19:22:43.349Z,10.70
2019-02-18T19:25:12.499Z,10.60
2019-02-18T19:27:41.129Z,10.60
2019-02-18T19:30:21.693Z,10.60
2019-02-18T19:32:50.394Z,10.70
2019-02-18T19:35:18.809Z,10.60
2019-02-18T19:37:47.252Z,10.60
2019-02-18T19:40:15.673Z,10.60
2019-02-18T19:42:44.100Z,10.50
2019-02-18T19:45:21.019Z,10.30
2019-02-18T19:47:49.448Z,10.30
2019-02-18T19:50:18.330Z,10.30
2019-02-18T19:52:47.067Z,10.30
2019-02-18T19:55:15.552Z,10.30
2019-02-18T19:57:44.072Z,10.30
2019-02-18T20:00:18.537Z,10.30
2019-02-18T20:02:47.104Z,10.30
2019-02-18T20:05:15.533Z,10.30
2019-02-18T20:07:44.420Z,10.30
2019-02-18T20:10:13.730Z,10.30
2019-02-18T20:12:42.436Z,10.30
2019-02-18T20:15:13.259Z,10.20
2019-02-18T20:17:42.043Z,10.20
2019-02-18T20:20:18.057Z,10.20
2019-02-18T20:22:46.514Z,10.20
2019-02-18T20:25:15.094Z,10.10
2019-02-18T20:27:43.988Z,10.10
2019-02-18T20:30:14.616Z,10.10
2019-02-18T20:32:44.702Z,10.10
2019-02-18T20:35:13.589Z,10.00
2019-02-18T20:37:42.003Z,10.00
2019-02-18T20:40:11.465Z,10.00
2019-02-18T20:42:40.605Z,9.90
2019-02-18T20:45:11.358Z,9.80
2019-02-18T20:47:39.826Z,9.70
2019-02-18T20:50:10.782Z,9.70
2019-02-18T20:52:39.188Z,9.60
2019-02-18T20:55:12.481Z,9.60
2019-02-18T20:57:40.881Z,9.70
2019-02-18T21:00:15.745Z,9.70
2019-02-18T21:02:44.149Z,9.80
2019-02-18T21:05:12.645Z,9.80
2019-02-18T21:07:41.048Z,9.80
2019-02-18T21:10:15.424Z,9.70
2019-02-18T21:12:43.831Z,9.60
2019-02-18T21:15:12.322Z,9.50
2019-02-18T21:17:40.734Z,9.50
2019-02-18T21:20:11.777Z,9.40
2019-02-18T21:22:40.201Z,9.20
2019-02-18T21:25:11.011Z,9.10
2019-02-18T21:27:39.418Z,9.10
2019-02-18T21:30:10.941Z,9.00
2019-02-18T21:32:40.036Z,9.00
2019-02-18T21:35:09.027Z,9.00
2019-02-18T21:37:37.442Z,8.90
2019-02-18T21:40:08.559Z,8.80
2019-02-18T21:42:36.970Z,8.70
2019-02-18T21:45:13.529Z,8.70
2019-02-18T21:47:41.954Z,8.70
2019-02-18T21:50:12.410Z,8.70
2019-02-18T21:52:41.427Z,8.70
2019-02-18T21:55:11.676Z,8.70
2019-02-18T21:57:40.426Z,8.70
2019-02-18T22:00:29.769Z,8.70
2019-02-18T22:02:58.453Z,8.60
2019-02-18T22:05:26.856Z,8.60
2019-02-18T22:07:55.273Z,8.60
2019-02-18T22:10:23.876Z,8.60
2019-02-18T22:12:52.285Z,8.60
2019-02-18T22:15:20.717Z,8.60
2019-02-18T22:17:49.135Z,8.70
2019-02-18T22:20:18.134Z,8.70
2019-02-18T22:22:46.689Z,8.70
2019-02-18T22:25:15.107Z,8.70
2019-02-18T22:27:43.693Z,8.70
2019-02-18T22:30:16.258Z,8.80
2019-02-18T22:32:44.737Z,8.80
2019-02-18T22:35:13.832Z,8.70
2019-02-18T22:37:42.284Z,8.70
2019-02-18T22:40:12.258Z,8.70
2019-02-18T22:42:40.683Z,8.80
2019-02-18T22:45:10.899Z,8.70
2019-02-18T22:47:39.379Z,8.80
2019-02-18T22:50:12.202Z,8.90
2019-02-18T22:52:40.927Z,9.00
2019-02-18T22:55:10.507Z,8.90
2019-02-18T22:57:38.984Z,8.80
2019-02-18T23:00:26.900Z,8.70
2019-02-18T23:02:55.698Z,8.70
2019-02-18T23:05:24.295Z,8.80
2019-02-18T23:07:52.968Z,8.80
2019-02-18T23:10:21.385Z,8.80
2019-02-18T23:12:49.784Z,8.70
2019-02-18T23:15:18.205Z,8.70
2019-02-18T23:17:46.608Z,8.60
2019-02-18T23:20:15.631Z,8.60
2019-02-18T23:22:44.049Z,8.70
2019-02-18T23:25:12.455Z,8.60
2019-02-18T23:27:40.923Z,8.50
2019-02-18T23:30:09.606Z,8.50
2019-02-18T23:32:38.141Z,8.40
2019-02-18T23:35:06.613Z,8.40
2019-02-18T23:37:35.048Z,8.40
2019-02-18T23:40:04.335Z,8.30
2019-02-18T23:42:33.305Z,8.40
2019-02-18T23:45:01.705Z,8.30
2019-02-18T23:47:30.135Z,8.20
2019-02-18T23:49:58.543Z,8.20
2019-02-18T23:52:26.965Z,8.30
2019-02-18T23:54:55.367Z,8.30
2019-02-18T23:57:23.790Z,8.30
2019-02-18T23:59:52.187Z,8.30
